Flight Track Log - Related Links

Times and Time Zones

All times are in EDT time to prevent confusion due to time zone crossing. See the ASQ5941 flight status page for this flight to view local times or setup timezone preferences in your user account.

Time Position Orientation Groundspeed Altitude Reporting Facility
EDT Latitude Longitude Course Direction KTS MPH feet Rate Location/Type
Tue 06:30:00 PM 41.4480 -75.9794 304° West  Level FlightAware Approximate
Tue 06:30:07 PM 41.5039 -75.7156 North 257 296 7,400  Level New York Center
Tue 06:31:00 PM 41.5073 -76.0708 315° West  Level FlightAware Approximate
Tue 06:31:05 PM 41.5594 -75.7833 318° Northwest 275 316 9,700  Level New York Center
Tue 06:32:00 PM 41.5683 -76.1608 312° West  Level FlightAware Approximate
Tue 06:32:06 PM 41.5939 -75.8994 292° West 297 342 11,000  Level New York Center
Tue 06:33:00 PM 41.6248 -76.2559 307° West  Level FlightAware Approximate
Tue 06:33:07 PM 41.6283 -76.0189 291° West 331 381 12,000  Level New York Center
Tue 06:34:00 PM 41.6796 -76.3531 307° West  Level FlightAware Approximate
Tue 06:34:07 PM 41.6606 -76.1350 290° West 363 418 13,300  Level New York Center
Tue 06:35:00 PM 41.7341 -76.4500 North  Level FlightAware Approximate
Tue 06:35:05 PM 41.7114 -76.2531 300° West 368 423 14,800  Level New York Center
Tue 06:36:05 PM 41.7817 -76.3536 313° West 368 423 16,300 1,488 Climbing New York Center
Tue 06:37:06 PM 41.8539 -76.4542 314° West 373 429 17,800 1,450 Climbing New York Center
Tue 06:38:05 PM 41.9467 -76.5208 332° Northwest 373 429 19,200 1,388 Climbing New York Center
Tue 06:39:07 PM 42.0233 -76.6111 319° Northwest 373 429 20,600 1,096 Climbing New York Center
Tue 06:41:33 PM 42.0931 -76.9733 285° West 391 450 23,000 990 Climbing Cleveland Center
Tue 06:42:33 PM 42.1206 -77.1256 284° West 410 472 24,000 1,100 Climbing Cleveland Center
Tue 06:43:33 PM 42.1503 -77.2808 285° West 421 484 25,200 1,200 Climbing Cleveland Center
Tue 06:44:33 PM 42.1753 -77.4308 283° West 421 484 26,400 1,200 Climbing Cleveland Center
Tue 06:45:33 PM 42.2022 -77.5811 284° West 421 484 27,600 1,250 Climbing Cleveland Center
Tue 06:46:33 PM 42.2311 -77.7283 285° West 415 478 28,900 1,250 Climbing Cleveland Center
Tue 06:47:33 PM 42.2556 -77.8758 283° West 410 472 30,100 1,200 Climbing Cleveland Center
Tue 06:48:33 PM 42.2817 -78.0236 283° West 410 472 31,300 1,050 Climbing Cleveland Center
Tue 06:49:33 PM 42.3100 -78.1769 284° West 410 472 32,200 800 Climbing Cleveland Center
Tue 06:50:33 PM 42.3361 -78.3333 283° West 416 479 32,900 400 Climbing Cleveland Center
Tue 06:51:33 PM 42.3619 -78.4925 282° West 428 493 33,000 350 Climbing Cleveland Center
Tue 06:52:33 PM 42.3900 -78.6631 283° West 448 516 33,600 500 Climbing Cleveland Center
Tue 06:53:33 PM 42.4200 -78.8339 283° West 462 532 34,000 200 Climbing Cleveland Center
Tue 06:54:33 PM 42.4497 -79.0214 282° West 467 537 34,000 450 Level Cleveland Center
Tue 06:55:33 PM 42.4767 -79.1728 284° West 467 537 34,900 1,000 Climbing Cleveland Center
Tue 06:56:33 PM 42.4953 -79.3414 279° West 467 537 36,000 550 Climbing Cleveland Center
Tue 06:57:33 PM 42.5031 -79.5103 274° West 462 532 36,000  Level Cleveland Center
Tue 06:58:33 PM 42.5131 -79.6819 275° West 462 532 36,000  Level Cleveland Center
Tue 06:59:33 PM 42.5206 -79.8564 273° West 462 532 36,000  Level Cleveland Center
Tue 07:00:33 PM 42.5278 -80.0450 273° West 462 532 36,000  Level Cleveland Center
Tue 07:01:33 PM 42.5347 -80.2197 273° West 462 532 36,000  Level Cleveland Center
Tue 07:02:33 PM 42.5414 -80.3917 273° West 462 532 36,000  Level Cleveland Center
Tue 07:03:33 PM 42.5497 -80.5692 274° West 462 532 36,000  Level Cleveland Center
Tue 07:04:33 PM 42.5561 -80.7214 273° West 467 537 36,000  Level Cleveland Center
Tue 07:05:33 PM 42.5597 -80.8961 272° West 462 532 36,000  Level Cleveland Center
Tue 07:06:33 PM 42.5675 -81.0708 274° West 468 539 36,000  Level Cleveland Center
Tue 07:07:33 PM 42.5750 -81.2486 273° West 462 532 36,000  Level Cleveland Center
Tue 07:08:33 PM 42.5800 -81.4233 272° West 462 532 36,000  Level Cleveland Center
Tue 07:09:33 PM 42.6081 -81.5903 283° West 462 532 36,000  Level Cleveland Center
Tue 07:10:33 PM 42.6375 -81.7628 283° West 469 540 36,000  Level Cleveland Center
Tue 07:11:33 PM 42.6689 -81.9469 283° West 469 540 36,000  Level Cleveland Center
Tue 07:12:33 PM 42.7000 -82.1144 284° West 469 540 36,000  Level Cleveland Center
Tue 07:13:33 PM 42.7269 -82.2903 282° West 469 540 36,000  Level Cleveland Center
Tue 07:14:33 PM 42.7492 -82.4578 280° West 469 540 36,000  Level Cleveland Center
Tue 07:15:33 PM 42.7631 -82.6306 276° West 469 540 36,000  Level Cleveland Center
Tue 07:16:33 PM 42.7744 -82.8036 275° West 464 534 36,000  Level Cleveland Center
Tue 07:17:33 PM 42.7875 -82.9767 276° West 464 534 36,000  Level Cleveland Center
Tue 07:18:33 PM 42.7983 -83.1525 275° West 464 534 36,000  Level Cleveland Center
Tue 07:19:33 PM 42.8092 -83.3228 275° West 464 534 36,000  Level Cleveland Center
Tue 07:20:33 PM 42.8214 -83.4989 275° West 464 534 36,000  Level Cleveland Center
Tue 07:21:33 PM 42.8314 -83.6719 275° West 464 534 36,000  Level Cleveland Center
Tue 07:22:33 PM 42.8414 -83.8453 275° West 464 534 36,000 -450 Level Cleveland Center
Tue 07:23:33 PM 42.8508 -84.0186 274° West 464 534 35,100 -1,200 Descending Cleveland Center
Tue 07:24:33 PM 42.8600 -84.1919 274° West 464 534 33,600 -949 Descending Cleveland Center
Tue 07:26:49 PM 42.8831 -84.5672 275° West 452 520 32,000 -485 Descending Chicago Center
Tue 07:27:51 PM 42.8675 -84.7411 263° West 465 535 32,000  Level Chicago Center
Tue 07:28:53 PM 42.8494 -84.9158 262° West 465 535 32,000  Level Chicago Center
Tue 07:29:55 PM 42.8308 -85.0897 262° West 465 535 32,000 -145 Level Chicago Center
Tue 07:30:57 PM 42.8122 -85.2636 262° West 465 535 31,700 -774 Descending Chicago Center
Tue 07:31:59 PM 42.7892 -85.4717 261° West 463 533 30,400 -1,355 Descending Chicago Center
Tue 07:33:01 PM 42.7611 -85.6406 257° West 457 526 28,900 -1,776 Descending Chicago Center
Tue 07:34:04 PM 42.7306 -85.8097 256° West 456 525 26,700 -2,304 Descending Chicago Center
Tue 07:35:06 PM 42.6997 -85.9775 256° West 455 524 24,100 -2,516 Descending Chicago Center
Tue 07:36:08 PM 42.6700 -86.1403 256° West 445 512 21,500 -1,935 Descending Chicago Center
Tue 07:37:10 PM 42.6408 -86.2997 256° West 435 501 20,100 -1,210 Descending Chicago Center
Tue 07:38:12 PM 42.6114 -86.4481 255° West 412 474 19,000 -1,065 Descending Chicago Center
Tue 07:39:14 PM 42.5836 -86.6000 256° West 414 476 17,900 -1,210 Descending Chicago Center
Tue 07:40:16 PM 42.5478 -86.7772 255° West 409 471 16,500 -1,694 Descending Chicago Center
Tue 07:41:18 PM 42.5100 -86.9142 250° West 392 451 14,400 -1,839 Descending Chicago Center
Tue 07:42:20 PM 42.4739 -87.0467 250° West 374 430 12,700 -1,548 Descending Chicago Center
Tue 07:43:22 PM 42.4375 -87.1728 249° West 369 425 11,200 -1,258 Descending Chicago Center
Tue 07:44:24 PM 42.4017 -87.3031 250° West 369 425 10,100 -581 Descending Chicago Center
Tue 07:45:26 PM 42.3661 -87.4347 250° West 311 358 10,000 -48 Descending Chicago Center
Tue 07:46:29 PM 42.3378 -87.5322 249° West 286 329 10,000 -432 Level Chicago Center
Tue 07:47:31 PM 42.2856 -87.5925 221° Southwest 253 291 9,100 -871 Descending Chicago Center
Tue 07:48:33 PM 42.2294 -87.6381 211° Southwest 239 275 8,200 -484 Descending Chicago Center
Tue 07:49:35 PM 42.1792 -87.6731 207° Southwest 210 242 8,100 -242 Descending Chicago Center
Tue 07:50:37 PM 42.1158 -87.7158 207° Southwest 212 244 7,700 -563 Descending Chicago Center
Tue 07:51:11 PM 42.0833 -87.7333 202° Southwest 206 237 7,200 -383 Descending Chicago TRACON
Tue 07:52:11 PM 42.0833 -87.8167 270° West 201 231 7,100 -50 Descending Chicago TRACON
Tue 07:53:11 PM 42.0833 -87.8833 270° West 212 244 7,100  Level Chicago TRACON
Tue 07:54:11 PM 42.0667 -87.9667 255° West 199 229 7,100 -250 Level Chicago TRACON
Tue 07:55:11 PM 42.0667 -88.0333 270° West 195 224 6,600 -992 Descending Chicago TRACON
Tue 07:56:12 PM 42.0667 -88.1000 270° West 189 217 5,100 -1,469 Descending Chicago TRACON
Tue 07:56:49 PM 42.0528 -88.1458 248° West 204 235 4,200 -1,212 Descending Chicago Center
Tue 07:57:51 PM 42.0125 -88.1225 157° South 185 213 3,100 -1,084 Descending Chicago Center
Tue 07:58:12 PM 42.0000 -88.1000 127° Southeast 176 203 2,700 -552 Descending Chicago TRACON
Tue 07:59:18 PM 41.9833 -88.0333 109° East 175 201 2,300 -364 Descending Chicago TRACON

Login

Don't have an account? Register now (free) for customized features, flight alerts, and more!